sensor_id;sensor_type;location;lat;lon;timestamp;temperature;humidity
24338;DHT22;12457;50.832;4.346;2024-01-30T00:01:05;11.10;99.90
24338;DHT22;12457;50.832;4.346;2024-01-30T00:03:31;11.20;99.90
24338;DHT22;12457;50.832;4.346;2024-01-30T00:05:56;11.20;99.90
24338;DHT22;12457;50.832;4.346;2024-01-30T00:08:23;11.30;99.90
24338;DHT22;12457;50.832;4.346;2024-01-30T00:10:49;11.30;99.90
24338;DHT22;12457;50.832;4.346;2024-01-30T00:13:15;11.30;99.90
24338;DHT22;12457;50.832;4.346;2024-01-30T00:15:44;11.30;99.90
24338;DHT22;12457;50.832;4.346;2024-01-30T00:18:30;11.30;99.90
24338;DHT22;12457;50.832;4.346;2024-01-30T00:20:56;11.30;99.90
24338;DHT22;12457;50.832;4.346;2024-01-30T00:23:21;11.40;99.90
24338;DHT22;12457;50.832;4.346;2024-01-30T00:25:47;11.40;99.90
24338;DHT22;12457;50.832;4.346;2024-01-30T00:28:13;11.40;99.90
24338;DHT22;12457;50.832;4.346;2024-01-30T00:30:38;11.50;99.90
24338;DHT22;12457;50.832;4.346;2024-01-30T00:33:04;11.50;99.90
24338;DHT22;12457;50.832;4.346;2024-01-30T00:35:30;11.60;99.90
24338;DHT22;12457;50.832;4.346;2024-01-30T00:38:05;11.60;99.90
24338;DHT22;12457;50.832;4.346;2024-01-30T00:40:33;11.60;99.90
24338;DHT22;12457;50.832;4.346;2024-01-30T00:43:00;11.70;99.90
24338;DHT22;12457;50.832;4.346;2024-01-30T00:45:26;11.70;99.90
24338;DHT22;12457;50.832;4.346;2024-01-30T00:47:52;11.70;99.90
24338;DHT22;12457;50.832;4.346;2024-01-30T00:50:17;11.70;99.90
24338;DHT22;12457;50.832;4.346;2024-01-30T00:52:43;11.70;99.90
24338;DHT22;12457;50.832;4.346;2024-01-30T00:55:10;11.70;99.90
24338;DHT22;12457;50.832;4.346;2024-01-30T00:57:36;11.70;99.90
24338;DHT22;12457;50.832;4.346;2024-01-30T01:00:03;11.70;99.90
24338;DHT22;12457;50.832;4.346;2024-01-30T01:02:44;11.80;99.90
24338;DHT22;12457;50.832;4.346;2024-01-30T01:05:10;11.80;99.90
24338;DHT22;12457;50.832;4.346;2024-01-30T01:07:36;11.80;99.90
24338;DHT22;12457;50.832;4.346;2024-01-30T01:10:02;11.80;99.90
24338;DHT22;12457;50.832;4.346;2024-01-30T01:12:30;11.80;99.90
24338;DHT22;12457;50.832;4.346;2024-01-30T01:14:56;11.90;99.90
24338;DHT22;12457;50.832;4.346;2024-01-30T01:17:27;11.80;99.90
24338;DHT22;12457;50.832;4.346;2024-01-30T01:19:55;11.80;99.90
24338;DHT22;12457;50.832;4.346;2024-01-30T01:22:20;11.90;99.90
24338;DHT22;12457;50.832;4.346;2024-01-30T01:24:46;11.90;99.90
24338;DHT22;12457;50.832;4.346;2024-01-30T01:27:12;11.90;99.90
24338;DHT22;12457;50.832;4.346;2024-01-30T01:29:38;12.00;99.90
24338;DHT22;12457;50.832;4.346;2024-01-30T01:32:03;12.00;99.90
24338;DHT22;12457;50.832;4.346;2024-01-30T01:34:44;12.00;99.90
24338;DHT22;12457;50.832;4.346;2024-01-30T01:37:11;12.00;99.90
24338;DHT22;12457;50.832;4.346;2024-01-30T01:39:37;12.00;99.90
24338;DHT22;12457;50.832;4.346;2024-01-30T01:42:03;12.00;99.90
24338;DHT22;12457;50.832;4.346;2024-01-30T01:44:29;12.10;99.90
24338;DHT22;12457;50.832;4.346;2024-01-30T01:46:55;12.10;99.90
24338;DHT22;12457;50.832;4.346;2024-01-30T01:49:42;12.10;99.90
24338;DHT22;12457;50.832;4.346;2024-01-30T01:52:08;12.20;99.90
24338;DHT22;12457;50.832;4.346;2024-01-30T01:54:34;12.20;99.90
24338;DHT22;12457;50.832;4.346;2024-01-30T01:57:00;12.30;99.90
24338;DHT22;12457;50.832;4.346;2024-01-30T01:59:26;12.20;99.90
24338;DHT22;12457;50.832;4.346;2024-01-30T02:01:54;12.10;99.90
24338;DHT22;12457;50.832;4.346;2024-01-30T02:04:22;12.10;99.90
24338;DHT22;12457;50.832;4.346;2024-01-30T02:06:48;12.20;99.90
24338;DHT22;12457;50.832;4.346;2024-01-30T02:09:15;12.10;99.90
24338;DHT22;12457;50.832;4.346;2024-01-30T02:11:40;12.10;99.90
24338;DHT22;12457;50.832;4.346;2024-01-30T02:14:07;12.10;99.90
24338;DHT22;12457;50.832;4.346;2024-01-30T02:16:32;12.00;99.90
24338;DHT22;12457;50.832;4.346;2024-01-30T02:19:17;12.00;99.90
24338;DHT22;12457;50.832;4.346;2024-01-30T02:21:43;11.90;99.90
24338;DHT22;12457;50.832;4.346;2024-01-30T02:24:09;12.10;99.90
24338;DHT22;12457;50.832;4.346;2024-01-30T02:26:34;12.10;99.90
24338;DHT22;12457;50.832;4.346;2024-01-30T02:29:01;12.10;99.90
24338;DHT22;12457;50.832;4.346;2024-01-30T02:31:26;12.10;99.90
24338;DHT22;12457;50.832;4.346;2024-01-30T02:34:01;12.20;99.90
24338;DHT22;12457;50.832;4.346;2024-01-30T02:36:27;12.20;99.90
24338;DHT22;12457;50.832;4.346;2024-01-30T02:38:52;12.20;99.90
24338;DHT22;12457;50.832;4.346;2024-01-30T02:41:18;12.20;99.90
24338;DHT22;12457;50.832;4.346;2024-01-30T02:43:44;12.20;99.90
24338;DHT22;12457;50.832;4.346;2024-01-30T02:46:10;12.20;99.90
24338;DHT22;12457;50.832;4.346;2024-01-30T02:51:46;12.20;99.90
24338;DHT22;12457;50.832;4.346;2024-01-30T02:54:13;12.20;99.90
24338;DHT22;12457;50.832;4.346;2024-01-30T02:56:39;12.20;99.90
24338;DHT22;12457;50.832;4.346;2024-01-30T02:59:05;12.10;99.90
24338;DHT22;12457;50.832;4.346;2024-01-30T03:01:31;12.10;99.90
24338;DHT22;12457;50.832;4.346;2024-01-30T03:03:57;12.20;99.90
24338;DHT22;12457;50.832;4.346;2024-01-30T03:06:24;12.20;99.90
24338;DHT22;12457;50.832;4.346;2024-01-30T03:08:50;12.20;99.90
24338;DHT22;12457;50.832;4.346;2024-01-30T03:11:16;12.20;99.90
24338;DHT22;12457;50.832;4.346;2024-01-30T03:13:42;12.10;99.90
24338;DHT22;12457;50.832;4.346;2024-01-30T03:16:09;12.20;99.90
24338;DHT22;12457;50.832;4.346;2024-01-30T03:18:36;12.20;99.90
24338;DHT22;12457;50.832;4.346;2024-01-30T03:21:01;12.20;99.90
24338;DHT22;12457;50.832;4.346;2024-01-30T03:23:27;12.30;99.90
24338;DHT22;12457;50.832;4.346;2024-01-30T03:25:53;12.20;99.90
24338;DHT22;12457;50.832;4.346;2024-01-30T03:28:18;12.20;99.90
24338;DHT22;12457;50.832;4.346;2024-01-30T03:30:44;12.20;99.90
24338;DHT22;12457;50.832;4.346;2024-01-30T03:33:11;12.20;99.90
24338;DHT22;12457;50.832;4.346;2024-01-30T03:35:37;12.20;99.90
24338;DHT22;12457;50.832;4.346;2024-01-30T03:38:02;12.20;99.90
24338;DHT22;12457;50.832;4.346;2024-01-30T03:40:28;12.20;99.90
24338;DHT22;12457;50.832;4.346;2024-01-30T03:42:54;12.20;99.90
24338;DHT22;12457;50.832;4.346;2024-01-30T03:45:19;12.20;99.90
24338;DHT22;12457;50.832;4.346;2024-01-30T03:47:45;12.30;99.90
24338;DHT22;12457;50.832;4.346;2024-01-30T03:50:11;12.20;99.90
24338;DHT22;12457;50.832;4.346;2024-01-30T03:52:37;12.10;99.90
24338;DHT22;12457;50.832;4.346;2024-01-30T03:55:02;12.10;99.90
24338;DHT22;12457;50.832;4.346;2024-01-30T03:57:29;12.10;99.90
24338;DHT22;12457;50.832;4.346;2024-01-30T03:59:55;12.10;99.90
24338;DHT22;12457;50.832;4.346;2024-01-30T04:02:22;12.10;99.90
24338;DHT22;12457;50.832;4.346;2024-01-30T04:04:47;12.10;99.90
24338;DHT22;12457;50.832;4.346;2024-01-30T04:07:13;12.20;99.90
24338;DHT22;12457;50.832;4.346;2024-01-30T04:09:40;12.20;99.90
24338;DHT22;12457;50.832;4.346;2024-01-30T04:12:07;12.20;99.90
24338;DHT22;12457;50.832;4.346;2024-01-30T04:14:33;12.10;99.90
24338;DHT22;12457;50.832;4.346;2024-01-30T04:16:58;12.10;99.90
24338;DHT22;12457;50.832;4.346;2024-01-30T04:19:37;12.20;99.90
24338;DHT22;12457;50.832;4.346;2024-01-30T04:22:04;12.20;99.90
24338;DHT22;12457;50.832;4.346;2024-01-30T04:24:30;12.30;99.90
24338;DHT22;12457;50.832;4.346;2024-01-30T04:26:56;12.30;99.90
24338;DHT22;12457;50.832;4.346;2024-01-30T04:29:22;12.30;99.90
24338;DHT22;12457;50.832;4.346;2024-01-30T04:31:48;12.30;99.90
24338;DHT22;12457;50.832;4.346;2024-01-30T04:34:14;12.30;99.90
24338;DHT22;12457;50.832;4.346;2024-01-30T04:36:45;12.30;99.90
24338;DHT22;12457;50.832;4.346;2024-01-30T04:39:13;12.30;99.90
24338;DHT22;12457;50.832;4.346;2024-01-30T04:41:38;12.20;99.90
24338;DHT22;12457;50.832;4.346;2024-01-30T04:44:04;12.20;99.90
24338;DHT22;12457;50.832;4.346;2024-01-30T04:46:30;12.20;99.90
24338;DHT22;12457;50.832;4.346;2024-01-30T04:48:57;12.20;99.90
24338;DHT22;12457;50.832;4.346;2024-01-30T04:51:22;12.10;99.90
24338;DHT22;12457;50.832;4.346;2024-01-30T04:53:48;12.00;99.90
24338;DHT22;12457;50.832;4.346;2024-01-30T04:56:14;12.10;99.90
24338;DHT22;12457;50.832;4.346;2024-01-30T04:58:39;12.10;99.90
24338;DHT22;12457;50.832;4.346;2024-01-30T05:01:05;12.10;99.90
24338;DHT22;12457;50.832;4.346;2024-01-30T05:03:35;12.00;99.90
24338;DHT22;12457;50.832;4.346;2024-01-30T05:06:06;12.10;99.90
24338;DHT22;12457;50.832;4.346;2024-01-30T05:08:33;12.00;99.90
24338;DHT22;12457;50.832;4.346;2024-01-30T05:11:05;12.10;99.90
24338;DHT22;12457;50.832;4.346;2024-01-30T05:13:31;12.10;99.90
24338;DHT22;12457;50.832;4.346;2024-01-30T05:15:57;12.10;99.90
24338;DHT22;12457;50.832;4.346;2024-01-30T05:18:23;12.20;99.90
24338;DHT22;12457;50.832;4.346;2024-01-30T05:20:51;12.20;99.90
24338;DHT22;12457;50.832;4.346;2024-01-30T05:23:17;12.20;99.90
24338;DHT22;12457;50.832;4.346;2024-01-30T05:25:43;12.10;99.90
24338;DHT22;12457;50.832;4.346;2024-01-30T05:28:09;12.10;99.90
24338;DHT22;12457;50.832;4.346;2024-01-30T05:30:34;12.20;99.90
24338;DHT22;12457;50.832;4.346;2024-01-30T05:33:00;12.20;99.90
24338;DHT22;12457;50.832;4.346;2024-01-30T05:35:31;12.20;99.90
24338;DHT22;12457;50.832;4.346;2024-01-30T05:37:58;12.20;99.90
24338;DHT22;12457;50.832;4.346;2024-01-30T05:40:26;12.20;99.90
24338;DHT22;12457;50.832;4.346;2024-01-30T05:42:52;12.20;99.90
24338;DHT22;12457;50.832;4.346;2024-01-30T05:45:18;12.30;99.90
24338;DHT22;12457;50.832;4.346;2024-01-30T05:47:44;12.20;99.90
24338;DHT22;12457;50.832;4.346;2024-01-30T05:50:09;12.20;99.90
24338;DHT22;12457;50.832;4.346;2024-01-30T05:52:35;12.10;99.90
24338;DHT22;12457;50.832;4.346;2024-01-30T05:55:01;12.10;99.90
24338;DHT22;12457;50.832;4.346;2024-01-30T05:57:27;12.10;99.90
24338;DHT22;12457;50.832;4.346;2024-01-30T05:59:53;12.10;99.90
24338;DHT22;12457;50.832;4.346;2024-01-30T06:02:19;12.10;99.90
24338;DHT22;12457;50.832;4.346;2024-01-30T06:04:44;12.10;99.90
24338;DHT22;12457;50.832;4.346;2024-01-30T06:07:10;12.10;99.90
24338;DHT22;12457;50.832;4.346;2024-01-30T06:09:37;12.00;99.90
24338;DHT22;12457;50.832;4.346;2024-01-30T06:12:05;11.90;99.90
24338;DHT22;12457;50.832;4.346;2024-01-30T06:14:31;11.90;99.90
24338;DHT22;12457;50.832;4.346;2024-01-30T06:16:58;12.00;99.90
24338;DHT22;12457;50.832;4.346;2024-01-30T06:19:24;12.00;99.90
24338;DHT22;12457;50.832;4.346;2024-01-30T06:21:50;12.00;99.90
24338;DHT22;12457;50.832;4.346;2024-01-30T06:24:16;12.00;99.90
24338;DHT22;12457;50.832;4.346;2024-01-30T06:26:41;11.90;99.90
24338;DHT22;12457;50.832;4.346;2024-01-30T06:29:07;11.80;99.90
24338;DHT22;12457;50.832;4.346;2024-01-30T06:31:40;11.90;99.90
24338;DHT22;12457;50.832;4.346;2024-01-30T06:34:05;12.00;99.90
24338;DHT22;12457;50.832;4.346;2024-01-30T06:36:31;12.00;99.90
24338;DHT22;12457;50.832;4.346;2024-01-30T06:38:57;11.90;99.90
24338;DHT22;12457;50.832;4.346;2024-01-30T06:41:23;11.90;99.90
24338;DHT22;12457;50.832;4.346;2024-01-30T06:43:50;11.90;99.90
24338;DHT22;12457;50.832;4.346;2024-01-30T06:46:16;11.90;99.90
24338;DHT22;12457;50.832;4.346;2024-01-30T06:48:41;12.00;99.90
24338;DHT22;12457;50.832;4.346;2024-01-30T06:51:10;11.90;99.90
24338;DHT22;12457;50.832;4.346;2024-01-30T06:53:37;11.90;99.90
24338;DHT22;12457;50.832;4.346;2024-01-30T06:56:03;11.90;99.90
24338;DHT22;12457;50.832;4.346;2024-01-30T06:58:29;11.90;99.90
24338;DHT22;12457;50.832;4.346;2024-01-30T07:00:55;11.90;99.90
24338;DHT22;12457;50.832;4.346;2024-01-30T07:03:21;11.90;99.90
24338;DHT22;12457;50.832;4.346;2024-01-30T07:05:48;11.90;99.90
24338;DHT22;12457;50.832;4.346;2024-01-30T07:08:15;11.80;99.90
24338;DHT22;12457;50.832;4.346;2024-01-30T07:10:44;11.80;99.90
24338;DHT22;12457;50.832;4.346;2024-01-30T07:13:11;11.90;99.90
24338;DHT22;12457;50.832;4.346;2024-01-30T07:15:36;11.90;99.90
24338;DHT22;12457;50.832;4.346;2024-01-30T07:18:03;12.00;99.90
24338;DHT22;12457;50.832;4.346;2024-01-30T07:23:55;12.00;99.90
24338;DHT22;12457;50.832;4.346;2024-01-30T07:26:21;12.10;99.90
24338;DHT22;12457;50.832;4.346;2024-01-30T07:28:48;12.10;99.90
24338;DHT22;12457;50.832;4.346;2024-01-30T07:31:15;12.10;99.90
24338;DHT22;12457;50.832;4.346;2024-01-30T07:33:41;12.10;99.90
24338;DHT22;12457;50.832;4.346;2024-01-30T07:36:07;12.20;99.90
24338;DHT22;12457;50.832;4.346;2024-01-30T07:38:32;12.20;99.90
24338;DHT22;12457;50.832;4.346;2024-01-30T07:40:58;12.20;99.90
24338;DHT22;12457;50.832;4.346;2024-01-30T07:43:25;12.10;99.90
24338;DHT22;12457;50.832;4.346;2024-01-30T07:45:51;12.10;99.90
24338;DHT22;12457;50.832;4.346;2024-01-30T07:48:17;12.10;99.90
24338;DHT22;12457;50.832;4.346;2024-01-30T07:51:00;12.20;99.90
24338;DHT22;12457;50.832;4.346;2024-01-30T07:53:25;12.20;99.90
24338;DHT22;12457;50.832;4.346;2024-01-30T07:55:52;12.20;99.90
24338;DHT22;12457;50.832;4.346;2024-01-30T07:58:17;12.10;99.90
24338;DHT22;12457;50.832;4.346;2024-01-30T08:00:55;12.20;99.90
24338;DHT22;12457;50.832;4.346;2024-01-30T08:03:24;12.20;99.90
24338;DHT22;12457;50.832;4.346;2024-01-30T08:06:17;12.30;99.90
24338;DHT22;12457;50.832;4.346;2024-01-30T08:08:43;12.20;99.90
24338;DHT22;12457;50.832;4.346;2024-01-30T08:11:09;12.20;99.90
24338;DHT22;12457;50.832;4.346;2024-01-30T08:13:35;12.20;99.90
24338;DHT22;12457;50.832;4.346;2024-01-30T08:16:00;12.30;99.90
24338;DHT22;12457;50.832;4.346;2024-01-30T08:18:34;12.10;99.90
24338;DHT22;12457;50.832;4.346;2024-01-30T08:21:05;12.10;99.90
24338;DHT22;12457;50.832;4.346;2024-01-30T08:23:31;12.20;99.90
24338;DHT22;12457;50.832;4.346;2024-01-30T08:25:57;12.30;99.90
24338;DHT22;12457;50.832;4.346;2024-01-30T08:28:22;12.30;99.90
24338;DHT22;12457;50.832;4.346;2024-01-30T08:30:49;12.30;99.90
24338;DHT22;12457;50.832;4.346;2024-01-30T08:33:14;12.30;99.90
24338;DHT22;12457;50.832;4.346;2024-01-30T08:35:41;12.40;99.90
24338;DHT22;12457;50.832;4.346;2024-01-30T08:38:20;12.40;99.90
24338;DHT22;12457;50.832;4.346;2024-01-30T08:40:45;12.40;99.90
24338;DHT22;12457;50.832;4.346;2024-01-30T08:43:11;12.50;99.90
24338;DHT22;12457;50.832;4.346;2024-01-30T08:45:38;12.60;99.90
24338;DHT22;12457;50.832;4.346;2024-01-30T08:48:04;12.60;99.90
24338;DHT22;12457;50.832;4.346;2024-01-30T08:50:29;12.60;99.90
24338;DHT22;12457;50.832;4.346;2024-01-30T08:52:56;12.60;99.90
24338;DHT22;12457;50.832;4.346;2024-01-30T08:55:22;12.60;99.90
24338;DHT22;12457;50.832;4.346;2024-01-30T08:57:48;12.60;99.90
24338;DHT22;12457;50.832;4.346;2024-01-30T09:00:14;12.70;99.90
24338;DHT22;12457;50.832;4.346;2024-01-30T09:02:40;12.70;99.90
24338;DHT22;12457;50.832;4.346;2024-01-30T09:05:07;12.80;99.90
24338;DHT22;12457;50.832;4.346;2024-01-30T09:07:33;12.80;99.90
24338;DHT22;12457;50.832;4.346;2024-01-30T09:09:59;12.70;99.90
24338;DHT22;12457;50.832;4.346;2024-01-30T09:12:24;12.80;99.90
24338;DHT22;12457;50.832;4.346;2024-01-30T09:14:50;12.80;99.90
24338;DHT22;12457;50.832;4.346;2024-01-30T09:17:16;12.80;99.90
24338;DHT22;12457;50.832;4.346;2024-01-30T09:19:42;12.90;99.90
24338;DHT22;12457;50.832;4.346;2024-01-30T09:22:08;12.90;99.90
24338;DHT22;12457;50.832;4.346;2024-01-30T09:24:34;12.80;99.90
24338;DHT22;12457;50.832;4.346;2024-01-30T09:27:00;12.90;99.90
24338;DHT22;12457;50.832;4.346;2024-01-30T09:29:26;12.90;99.90
24338;DHT22;12457;50.832;4.346;2024-01-30T09:31:52;12.90;99.90
24338;DHT22;12457;50.832;4.346;2024-01-30T09:34:18;12.80;99.90
24338;DHT22;12457;50.832;4.346;2024-01-30T09:36:59;12.80;99.90
24338;DHT22;12457;50.832;4.346;2024-01-30T09:39:25;12.70;99.90
24338;DHT22;12457;50.832;4.346;2024-01-30T09:42:21;12.70;99.90
24338;DHT22;12457;50.832;4.346;2024-01-30T09:44:51;12.70;99.90
24338;DHT22;12457;50.832;4.346;2024-01-30T09:47:17;12.70;99.90
24338;DHT22;12457;50.832;4.346;2024-01-30T09:49:43;12.60;99.90
24338;DHT22;12457;50.832;4.346;2024-01-30T09:52:09;12.60;99.90
24338;DHT22;12457;50.832;4.346;2024-01-30T09:54:36;12.50;99.90
24338;DHT22;12457;50.832;4.346;2024-01-30T09:57:03;12.60;99.90
24338;DHT22;12457;50.832;4.346;2024-01-30T09:59:29;12.60;99.90
24338;DHT22;12457;50.832;4.346;2024-01-30T10:01:56;12.50;99.90
24338;DHT22;12457;50.832;4.346;2024-01-30T10:04:23;12.60;99.90
24338;DHT22;12457;50.832;4.346;2024-01-30T10:06:51;12.60;99.90
24338;DHT22;12457;50.832;4.346;2024-01-30T10:09:18;12.50;99.90
24338;DHT22;12457;50.832;4.346;2024-01-30T10:11:48;12.40;99.90
24338;DHT22;12457;50.832;4.346;2024-01-30T10:14:14;12.40;99.90
24338;DHT22;12457;50.832;4.346;2024-01-30T10:16:40;12.50;99.90
24338;DHT22;12457;50.832;4.346;2024-01-30T10:19:06;12.60;99.90
24338;DHT22;12457;50.832;4.346;2024-01-30T10:21:32;12.60;99.90
24338;DHT22;12457;50.832;4.346;2024-01-30T10:23:58;12.70;99.90
24338;DHT22;12457;50.832;4.346;2024-01-30T10:26:32;12.70;99.90
24338;DHT22;12457;50.832;4.346;2024-01-30T10:28:59;12.70;99.90
24338;DHT22;12457;50.832;4.346;2024-01-30T10:31:25;12.60;99.90
24338;DHT22;12457;50.832;4.346;2024-01-30T10:33:51;12.70;99.90
24338;DHT22;12457;50.832;4.346;2024-01-30T10:36:18;12.80;99.90
24338;DHT22;12457;50.832;4.346;2024-01-30T10:38:54;12.80;99.90
24338;DHT22;12457;50.832;4.346;2024-01-30T10:41:25;12.80;99.90
24338;DHT22;12457;50.832;4.346;2024-01-30T10:44:09;12.90;99.90
24338;DHT22;12457;50.832;4.346;2024-01-30T10:46:38;12.90;99.90
24338;DHT22;12457;50.832;4.346;2024-01-30T10:49:05;12.90;99.90
24338;DHT22;12457;50.832;4.346;2024-01-30T10:51:32;13.00;99.90
24338;DHT22;12457;50.832;4.346;2024-01-30T10:53:58;13.10;99.90
24338;DHT22;12457;50.832;4.346;2024-01-30T10:56:24;13.00;99.90
24338;DHT22;12457;50.832;4.346;2024-01-30T10:58:51;13.00;99.90
24338;DHT22;12457;50.832;4.346;2024-01-30T11:01:22;13.00;99.90
24338;DHT22;12457;50.832;4.346;2024-01-30T11:03:54;12.80;99.90
24338;DHT22;12457;50.832;4.346;2024-01-30T11:06:25;12.80;99.90
24338;DHT22;12457;50.832;4.346;2024-01-30T11:09:03;12.70;99.90
24338;DHT22;12457;50.832;4.346;2024-01-30T11:11:50;12.70;99.90
24338;DHT22;12457;50.832;4.346;2024-01-30T11:14:16;12.50;99.90
24338;DHT22;12457;50.832;4.346;2024-01-30T11:16:43;12.40;99.90
24338;DHT22;12457;50.832;4.346;2024-01-30T11:19:11;12.30;99.90
24338;DHT22;12457;50.832;4.346;2024-01-30T11:21:44;12.20;99.90
24338;DHT22;12457;50.832;4.346;2024-01-30T11:24:20;12.30;99.90
24338;DHT22;12457;50.832;4.346;2024-01-30T11:26:55;12.30;99.90
24338;DHT22;12457;50.832;4.346;2024-01-30T11:29:28;12.30;99.90
24338;DHT22;12457;50.832;4.346;2024-01-30T11:31:55;12.40;99.90
24338;DHT22;12457;50.832;4.346;2024-01-30T11:34:22;12.50;99.90
24338;DHT22;12457;50.832;4.346;2024-01-30T11:36:58;12.50;99.90
24338;DHT22;12457;50.832;4.346;2024-01-30T11:39:26;12.60;99.90
24338;DHT22;12457;50.832;4.346;2024-01-30T11:41:52;12.70;99.90
24338;DHT22;12457;50.832;4.346;2024-01-30T11:44:22;12.80;99.90
24338;DHT22;12457;50.832;4.346;2024-01-30T11:46:53;12.80;99.90
24338;DHT22;12457;50.832;4.346;2024-01-30T11:49:19;12.70;99.90
24338;DHT22;12457;50.832;4.346;2024-01-30T11:51:48;12.80;99.90
24338;DHT22;12457;50.832;4.346;2024-01-30T11:54:18;12.80;99.90
24338;DHT22;12457;50.832;4.346;2024-01-30T11:56:44;12.80;99.90
24338;DHT22;12457;50.832;4.346;2024-01-30T11:59:09;12.70;99.90
24338;DHT22;12457;50.832;4.346;2024-01-30T12:01:38;12.70;99.90
24338;DHT22;12457;50.832;4.346;2024-01-30T12:04:04;12.80;99.90
24338;DHT22;12457;50.832;4.346;2024-01-30T12:06:34;12.80;99.90
24338;DHT22;12457;50.832;4.346;2024-01-30T12:09:04;12.90;99.90
24338;DHT22;12457;50.832;4.346;2024-01-30T12:11:30;13.00;99.90
24338;DHT22;12457;50.832;4.346;2024-01-30T12:13:56;12.90;99.90
24338;DHT22;12457;50.832;4.346;2024-01-30T12:16:23;12.90;99.90
24338;DHT22;12457;50.832;4.346;2024-01-30T12:18:59;12.90;99.90
24338;DHT22;12457;50.832;4.346;2024-01-30T12:21:26;12.70;99.90
24338;DHT22;12457;50.832;4.346;2024-01-30T12:23:52;12.60;99.90
24338;DHT22;12457;50.832;4.346;2024-01-30T12:26:20;12.60;99.90
24338;DHT22;12457;50.832;4.346;2024-01-30T12:28:49;12.70;99.90
24338;DHT22;12457;50.832;4.346;2024-01-30T12:31:25;12.80;99.90
24338;DHT22;12457;50.832;4.346;2024-01-30T12:33:52;12.80;99.90
24338;DHT22;12457;50.832;4.346;2024-01-30T12:36:18;12.80;99.90
24338;DHT22;12457;50.832;4.346;2024-01-30T12:38:49;12.90;99.90
24338;DHT22;12457;50.832;4.346;2024-01-30T12:41:16;13.10;99.90
24338;DHT22;12457;50.832;4.346;2024-01-30T12:43:43;13.00;99.90
24338;DHT22;12457;50.832;4.346;2024-01-30T12:46:09;13.00;99.90
24338;DHT22;12457;50.832;4.346;2024-01-30T12:48:35;12.90;99.90
24338;DHT22;12457;50.832;4.346;2024-01-30T12:51:00;12.90;99.90
24338;DHT22;12457;50.832;4.346;2024-01-30T12:53:26;12.90;99.90
24338;DHT22;12457;50.832;4.346;2024-01-30T12:55:52;13.00;99.90
24338;DHT22;12457;50.832;4.346;2024-01-30T12:58:19;13.00;99.90
24338;DHT22;12457;50.832;4.346;2024-01-30T13:00:45;13.00;99.90
24338;DHT22;12457;50.832;4.346;2024-01-30T13:03:13;13.10;99.90
24338;DHT22;12457;50.832;4.346;2024-01-30T13:05:38;13.20;99.90
24338;DHT22;12457;50.832;4.346;2024-01-30T13:08:06;13.20;99.90
24338;DHT22;12457;50.832;4.346;2024-01-30T13:10:44;13.30;99.90
24338;DHT22;12457;50.832;4.346;2024-01-30T13:13:09;13.10;99.90
24338;DHT22;12457;50.832;4.346;2024-01-30T13:15:35;13.10;99.90
24338;DHT22;12457;50.832;4.346;2024-01-30T13:18:01;13.00;99.90
24338;DHT22;12457;50.832;4.346;2024-01-30T13:20:27;13.00;99.90
24338;DHT22;12457;50.832;4.346;2024-01-30T13:22:53;12.90;99.90
24338;DHT22;12457;50.832;4.346;2024-01-30T13:25:47;12.90;99.90
24338;DHT22;12457;50.832;4.346;2024-01-30T13:28:13;12.80;99.90
24338;DHT22;12457;50.832;4.346;2024-01-30T13:30:38;12.70;99.90
24338;DHT22;12457;50.832;4.346;2024-01-30T13:33:04;12.60;99.90
24338;DHT22;12457;50.832;4.346;2024-01-30T13:35:30;12.60;99.90
24338;DHT22;12457;50.832;4.346;2024-01-30T13:37:56;12.60;99.90
24338;DHT22;12457;50.832;4.346;2024-01-30T13:40:41;12.60;99.90
24338;DHT22;12457;50.832;4.346;2024-01-30T13:43:07;12.60;99.90
24338;DHT22;12457;50.832;4.346;2024-01-30T13:45:33;12.60;99.90
24338;DHT22;12457;50.832;4.346;2024-01-30T13:48:00;12.70;99.90
24338;DHT22;12457;50.832;4.346;2024-01-30T13:50:26;12.70;99.90
24338;DHT22;12457;50.832;4.346;2024-01-30T13:52:52;12.60;99.90
24338;DHT22;12457;50.832;4.346;2024-01-30T13:55:22;12.70;99.90
24338;DHT22;12457;50.832;4.346;2024-01-30T13:57:49;12.70;99.90
24338;DHT22;12457;50.832;4.346;2024-01-30T14:00:14;12.60;99.90
24338;DHT22;12457;50.832;4.346;2024-01-30T14:02:42;12.50;99.90
24338;DHT22;12457;50.832;4.346;2024-01-30T14:05:08;12.40;99.90
24338;DHT22;12457;50.832;4.346;2024-01-30T14:07:36;12.40;99.90
24338;DHT22;12457;50.832;4.346;2024-01-30T14:10:06;12.30;99.90
24338;DHT22;12457;50.832;4.346;2024-01-30T14:12:32;12.30;99.90
24338;DHT22;12457;50.832;4.346;2024-01-30T14:14:58;12.40;99.90
24338;DHT22;12457;50.832;4.346;2024-01-30T14:17:26;12.40;99.90
24338;DHT22;12457;50.832;4.346;2024-01-30T14:19:52;12.30;99.90
24338;DHT22;12457;50.832;4.346;2024-01-30T14:22:17;12.20;99.90
24338;DHT22;12457;50.832;4.346;2024-01-30T14:25:05;12.10;99.90
24338;DHT22;12457;50.832;4.346;2024-01-30T14:27:31;12.00;99.90
24338;DHT22;12457;50.832;4.346;2024-01-30T14:29:57;12.10;99.90
24338;DHT22;12457;50.832;4.346;2024-01-30T14:32:24;12.00;99.90
24338;DHT22;12457;50.832;4.346;2024-01-30T14:34:51;12.00;99.90
24338;DHT22;12457;50.832;4.346;2024-01-30T14:37:20;11.80;99.90
24338;DHT22;12457;50.832;4.346;2024-01-30T14:39:50;11.70;99.90
24338;DHT22;12457;50.832;4.346;2024-01-30T14:42:16;11.80;99.90
24338;DHT22;12457;50.832;4.346;2024-01-30T14:44:42;11.70;99.90
24338;DHT22;12457;50.832;4.346;2024-01-30T14:47:09;11.80;99.90
24338;DHT22;12457;50.832;4.346;2024-01-30T14:49:35;11.80;99.90
24338;DHT22;12457;50.832;4.346;2024-01-30T14:52:01;11.80;99.90
24338;DHT22;12457;50.832;4.346;2024-01-30T14:54:34;11.80;99.90
24338;DHT22;12457;50.832;4.346;2024-01-30T14:57:00;11.70;99.90
24338;DHT22;12457;50.832;4.346;2024-01-30T14:59:26;11.60;99.90
24338;DHT22;12457;50.832;4.346;2024-01-30T15:01:53;11.50;99.90
24338;DHT22;12457;50.832;4.346;2024-01-30T15:04:19;11.50;99.90
24338;DHT22;12457;50.832;4.346;2024-01-30T15:06:44;11.40;99.90
24338;DHT22;12457;50.832;4.346;2024-01-30T15:09:14;11.40;99.90
24338;DHT22;12457;50.832;4.346;2024-01-30T15:11:44;11.30;99.90
24338;DHT22;12457;50.832;4.346;2024-01-30T15:14:10;11.30;99.90
24338;DHT22;12457;50.832;4.346;2024-01-30T15:16:36;11.20;99.90
24338;DHT22;12457;50.832;4.346;2024-01-30T15:19:02;11.10;99.90
24338;DHT22;12457;50.832;4.346;2024-01-30T15:21:30;11.10;99.90
24338;DHT22;12457;50.832;4.346;2024-01-30T15:23:56;11.10;99.90
24338;DHT22;12457;50.832;4.346;2024-01-30T15:26:22;11.10;99.90
24338;DHT22;12457;50.832;4.346;2024-01-30T15:28:48;11.10;99.90
24338;DHT22;12457;50.832;4.346;2024-01-30T15:31:13;11.10;99.90
24338;DHT22;12457;50.832;4.346;2024-01-30T15:33:39;11.10;99.90
24338;DHT22;12457;50.832;4.346;2024-01-30T15:36:06;11.10;99.90
24338;DHT22;12457;50.832;4.346;2024-01-30T15:38:31;11.10;99.90